Time;durP1;ratioP1;P1;durP2;ratioP2;P2;SDS_P1;SDS_P2;PMS_P1;PMS_P2;Temp;Humidity;BMP_temperature;BMP_pressure;BME280_temperature;BME280_humidity;BME280_pressure;Samples;Min_cycle;Max_cycle;Signal;HPM_P1;HPM_P2
2021/01/26 00:01:08;;;;;;;2.17;0.68;;;15.20;62.90;;;;;;6336131;22;20005;-72
2021/01/26 00:03:34;;;;;;;0.50;0.50;;;15.20;63.00;;;;;;6337105;22;20022;-73
2021/01/26 00:05:59;;;;;;;0.30;0.30;;;15.20;63.00;;;;;;6335432;22;20172;-73
2021/01/26 00:08:25;;;;;;;0.52;0.52;;;15.20;63.00;;;;;;6336805;22;19998;-72
2021/01/26 00:10:51;;;;;;;0.60;0.40;;;15.20;63.10;;;;;;6336794;22;20400;-73
2021/01/26 00:13:19;;;;;;;1.27;0.77;;;15.10;63.10;;;;;;6310323;22;20010;-72
2021/01/26 00:15:45;;;;;;;0.88;0.45;;;15.20;63.10;;;;;;6309089;22;20429;-72
2021/01/26 00:18:10;;;;;;;0.88;0.50;;;15.10;63.10;;;;;;6336629;22;20040;-73
2021/01/26 00:20:36;;;;;;;0.50;0.50;;;15.10;63.10;;;;;;6335631;22;20012;-73
2021/01/26 00:23:03;;;;;;;0.73;0.38;;;15.10;63.10;;;;;;6338138;22;20010;-73
2021/01/26 00:25:36;;;;;;;2.65;0.70;;;15.10;63.20;;;;;;6310477;22;19999;-73
2021/01/26 00:28:03;;;;;;;0.50;0.50;;;15.10;63.20;;;;;;6338146;22;20062;-73
2021/01/26 00:30:31;;;;;;;1.10;0.38;;;15.10;63.20;;;;;;6335796;22;20328;-73
2021/01/26 00:33:01;;;;;;;0.50;0.35;;;15.10;63.20;;;;;;6309563;22;20107;-72
2021/01/26 00:35:29;;;;;;;0.30;0.30;;;15.10;63.20;;;;;;6337635;22;19999;-72
2021/01/26 00:37:56;;;;;;;1.17;0.60;;;15.10;63.20;;;;;;6333994;22;20061;-72
2021/01/26 00:40:26;;;;;;;0.40;0.40;;;15.10;63.20;;;;;;6303979;22;20011;-71
2021/01/26 00:42:58;;;;;;;0.60;0.30;;;15.10;63.20;;;;;;6305983;22;20004;-72
2021/01/26 00:45:25;;;;;;;1.38;0.50;;;15.10;63.20;;;;;;6331488;22;20003;-72
2021/01/26 00:47:50;;;;;;;0.63;0.50;;;15.10;63.20;;;;;;6305698;22;20006;-73
2021/01/26 00:50:18;;;;;;;0.30;0.30;;;15.10;63.20;;;;;;6304582;22;20317;-73
2021/01/26 00:52:44;;;;;;;0.30;0.30;;;15.10;63.20;;;;;;6306452;22;20009;-73
2021/01/26 00:55:11;;;;;;;0.50;0.50;;;15.10;63.20;;;;;;6306826;22;20317;-73
2021/01/26 00:57:38;;;;;;;0.95;0.70;;;15.10;63.20;;;;;;6305973;22;20074;-73
2021/01/26 01:00:13;;;;;;;0.50;0.40;;;15.10;63.30;;;;;;6329328;22;20026;-72
2021/01/26 01:02:44;;;;;;;0.57;0.35;;;15.10;63.30;;;;;;6306148;22;20011;-73
2021/01/26 01:05:10;;;;;;;1.48;0.30;;;15.10;63.30;;;;;;6304220;22;20623;-73
2021/01/26 01:07:36;;;;;;;0.70;0.50;;;15.10;63.30;;;;;;6304330;22;20078;-73
2021/01/26 01:10:02;;;;;;;0.45;0.32;;;15.10;63.20;;;;;;6305240;22;20027;-73
2021/01/26 01:12:28;;;;;;;0.60;0.52;;;15.10;63.20;;;;;;6306254;22;19999;-72
2021/01/26 01:14:54;;;;;;;0.93;0.47;;;15.10;63.20;;;;;;6304759;22;20007;-73
2021/01/26 01:17:19;;;;;;;1.65;0.40;;;15.20;63.20;;;;;;6304853;22;19999;-73
2021/01/26 01:19:45;;;;;;;0.40;0.40;;;15.10;63.20;;;;;;6305609;22;19999;-73
2021/01/26 01:22:10;;;;;;;0.57;0.38;;;15.10;63.20;;;;;;6305870;22;20010;-72
2021/01/26 01:24:36;;;;;;;0.73;0.50;;;15.10;63.20;;;;;;6306357;22;19995;-73
2021/01/26 01:27:02;;;;;;;0.38;0.30;;;15.20;63.20;;;;;;6306023;22;19999;-73
2021/01/26 01:29:31;;;;;;;0.38;0.30;;;15.20;63.10;;;;;;6330390;22;20003;-73
2021/01/26 01:31:57;;;;;;;0.65;0.43;;;15.20;63.00;;;;;;6305510;22;19999;-73
2021/01/26 01:34:23;;;;;;;0.50;0.40;;;15.20;63.00;;;;;;6304844;22;20003;-73
2021/01/26 01:36:48;;;;;;;0.93;0.52;;;15.20;63.00;;;;;;6304061;22;20410;-73
2021/01/26 01:39:14;;;;;;;0.73;0.43;;;15.20;63.00;;;;;;6305841;22;20431;-72
2021/01/26 01:41:40;;;;;;;0.80;0.50;;;15.20;62.90;;;;;;6333503;22;20018;-73
2021/01/26 01:44:06;;;;;;;1.80;0.38;;;15.30;62.90;;;;;;6335689;22;20409;-73
2021/01/26 01:46:38;;;;;;;0.70;0.47;;;15.30;62.90;;;;;;6336888;22;20048;-72
2021/01/26 01:49:06;;;;;;;0.50;0.38;;;15.20;62.90;;;;;;6337079;22;19995;-73
2021/01/26 01:51:37;;;;;;;0.40;0.30;;;15.30;62.80;;;;;;6333523;22;20064;-73
2021/01/26 01:54:17;;;;;;;0.60;0.38;;;15.30;62.80;;;;;;6337263;22;20006;-73
2021/01/26 01:56:44;;;;;;;0.38;0.38;;;15.30;62.70;;;;;;6309088;22;20018;-73
2021/01/26 01:59:16;;;;;;;0.55;0.45;;;15.30;62.80;;;;;;6335797;22;19998;-73
2021/01/26 02:01:42;;;;;;;0.50;0.40;;;15.30;62.80;;;;;;6307918;22;20475;-73
2021/01/26 02:04:12;;;;;;;0.43;0.43;;;15.30;62.70;;;;;;6335803;22;19999;-73
2021/01/26 02:06:40;;;;;;;0.65;0.40;;;15.30;62.70;;;;;;6336887;22;19999;-73
2021/01/26 02:09:10;;;;;;;0.45;0.35;;;15.30;62.70;;;;;;6338774;22;20001;-73
2021/01/26 02:11:36;;;;;;;0.40;0.32;;;15.30;62.70;;;;;;6337729;22;20064;-73
2021/01/26 02:14:03;;;;;;;0.43;0.43;;;15.30;62.70;;;;;;6337346;22;20003;-73
2021/01/26 02:16:51;;;;;;;0.40;0.40;;;15.30;62.70;;;;;;6336426;22;19999;-72
2021/01/26 02:19:54;;;;;;;0.77;0.60;;;15.30;62.60;;;;;;6309573;22;20006;-73
2021/01/26 02:22:48;;;;;;;0.77;0.50;;;15.30;62.60;;;;;;6309151;22;20013;-73
2021/01/26 02:25:53;;;;;;;0.98;0.40;;;15.30;62.70;;;;;;6338488;22;19999;-73
2021/01/26 02:28:52;;;;;;;0.60;0.50;;;15.30;62.70;;;;;;6287399;22;20005;-73
2021/01/26 02:31:57;;;;;;;0.20;0.20;;;15.30;62.80;;;;;;6307583;22;20011;-73
2021/01/26 02:34:38;;;;;;;0.57;0.40;;;15.30;62.80;;;;;;6307412;22;20009;-73
2021/01/26 02:37:42;;;;;;;0.68;0.57;;;15.30;62.80;;;;;;6308343;22;20006;-73
2021/01/26 02:40:16;;;;;;;0.45;0.35;;;15.30;62.80;;;;;;6222444;22;20092;-73
2021/01/26 02:42:59;;;;;;;0.40;0.40;;;15.20;62.90;;;;;;6334320;22;20040;-73
2021/01/26 02:45:35;;;;;;;2.55;0.50;;;15.30;62.90;;;;;;6337186;22;20344;-73
2021/01/26 02:48:22;;;;;;;0.63;0.40;;;15.20;63.00;;;;;;6335435;22;20376;-73
2021/01/26 02:50:53;;;;;;;1.23;0.40;;;15.20;63.00;;;;;;6336021;22;20017;-73
2021/01/26 02:53:42;;;;;;;0.65;0.40;;;15.20;63.10;;;;;;6308484;22;20423;-73
2021/01/26 02:56:42;;;;;;;0.52;0.30;;;15.20;63.10;;;;;;6308779;22;20443;-73
2021/01/26 02:59:29;;;;;;;1.65;0.50;;;15.20;63.10;;;;;;6308632;22;20444;-72
2021/01/26 03:02:18;;;;;;;0.30;0.30;;;15.20;63.20;;;;;;6336049;22;19995;-73
2021/01/26 03:04:52;;;;;;;0.73;0.40;;;15.20;63.20;;;;;;6334686;22;20320;-73
2021/01/26 03:07:23;;;;;;;0.30;0.30;;;15.20;63.20;;;;;;6336250;22;20006;-73
2021/01/26 03:09:54;;;;;;;0.35;0.30;;;15.10;63.20;;;;;;6309959;22;20026;-73
2021/01/26 03:12:30;;;;;;;0.50;0.40;;;15.10;63.20;;;;;;6338068;22;20485;-73
2021/01/26 03:15:15;;;;;;;1.60;0.75;;;15.10;63.30;;;;;;6337912;22;20091;-73
2021/01/26 03:17:52;;;;;;;1.25;0.25;;;15.10;63.30;;;;;;6335296;22;19999;-72
2021/01/26 03:20:51;;;;;;;0.30;0.30;;;15.10;63.30;;;;;;6335565;22;20029;-73
2021/01/26 03:23:22;;;;;;;1.23;0.40;;;15.10;63.40;;;;;;6318688;22;20085;-73
2021/01/26 03:25:51;;;;;;;0.98;0.35;;;15.10;63.40;;;;;;6334548;22;20006;-73
2021/01/26 03:28:21;;;;;;;0.25;0.25;;;15.10;63.40;;;;;;6308414;22;20502;-73
2021/01/26 03:30:50;;;;;;;0.30;0.30;;;15.10;63.40;;;;;;6336638;22;20000;-72
2021/01/26 03:33:22;;;;;;;0.38;0.38;;;15.10;63.30;;;;;;6335078;22;20009;-72
2021/01/26 03:35:48;;;;;;;0.65;0.52;;;15.10;63.40;;;;;;6308407;22;20020;-73
2021/01/26 03:38:23;;;;;;;0.28;0.28;;;15.10;63.40;;;;;;6335662;22;19998;-73
2021/01/26 03:40:53;;;;;;;0.30;0.30;;;15.10;63.30;;;;;;6335983;22;20021;-73
2021/01/26 03:43:20;;;;;;;0.85;0.40;;;15.10;63.40;;;;;;6336185;22;20007;-73
2021/01/26 03:45:59;;;;;;;0.40;0.40;;;15.10;63.40;;;;;;6307362;22;20378;-73
2021/01/26 03:48:35;;;;;;;0.77;0.50;;;15.10;63.30;;;;;;6335584;22;20436;-73
2021/01/26 03:51:29;;;;;;;0.38;0.30;;;15.10;63.30;;;;;;6306702;22;20011;-73
2021/01/26 03:54:13;;;;;;;0.40;0.40;;;15.10;63.30;;;;;;6306895;22;20488;-73
2021/01/26 03:57:13;;;;;;;0.32;0.30;;;15.20;63.20;;;;;;6336091;22;19995;-73
2021/01/26 04:00:10;;;;;;;0.40;0.30;;;15.20;63.20;;;;;;6284046;22;20003;-73
2021/01/26 04:02:52;;;;;;;1.40;0.30;;;15.20;63.10;;;;;;6336407;22;20002;-73
2021/01/26 04:05:40;;;;;;;0.60;0.30;;;15.20;63.10;;;;;;6335227;22;19994;-72
2021/01/26 04:08:15;;;;;;;1.35;0.50;;;15.20;63.10;;;;;;6336016;22;20009;-72
2021/01/26 04:10:50;;;;;;;0.38;0.38;;;15.20;63.00;;;;;;6335912;22;20090;-71
2021/01/26 04:13:24;;;;;;;0.63;0.40;;;15.20;63.10;;;;;;6308126;22;20011;-72
2021/01/26 04:15:56;;;;;;;0.30;0.30;;;15.20;63.10;;;;;;6333785;22;20003;-72
2021/01/26 04:18:27;;;;;;;0.30;0.30;;;15.20;63.00;;;;;;6336003;22;20048;-73
2021/01/26 04:20:55;;;;;;;0.30;0.30;;;15.20;63.00;;;;;;6335897;22;20023;-72
2021/01/26 04:23:21;;;;;;;0.65;0.43;;;15.20;63.00;;;;;;6308016;22;20057;-72
2021/01/26 04:25:50;;;;;;;0.70;0.40;;;15.20;63.10;;;;;;6308564;22;20309;-73
2021/01/26 04:28:34;;;;;;;0.40;0.40;;;15.20;63.10;;;;;;6337467;22;20417;-73
2021/01/26 04:31:00;;;;;;;0.77;0.30;;;15.20;63.20;;;;;;6338219;22;20497;-74
2021/01/26 04:33:25;;;;;;;0.70;0.40;;;15.20;63.20;;;;;;6336702;22;20006;-73
2021/01/26 04:35:51;;;;;;;0.52;0.30;;;15.20;63.20;;;;;;6337315;22;19999;-73
2021/01/26 04:38:17;;;;;;;0.38;0.30;;;15.20;63.20;;;;;;6336280;22;20003;-74
2021/01/26 04:40:42;;;;;;;0.82;0.60;;;15.10;63.20;;;;;;6330442;22;20058;-72
2021/01/26 04:43:08;;;;;;;0.43;0.28;;;15.20;63.20;;;;;;6306906;22;20015;-72
2021/01/26 04:45:52;;;;;;;0.40;0.30;;;15.20;63.10;;;;;;6303800;22;19999;-72
2021/01/26 04:48:26;;;;;;;0.22;0.22;;;15.20;63.10;;;;;;6306251;22;20456;-72
2021/01/26 04:51:08;;;;;;;0.30;0.30;;;15.20;63.10;;;;;;6303832;22;20314;-73
2021/01/26 04:53:40;;;;;;;0.38;0.30;;;15.20;63.00;;;;;;6306702;22;19999;-73
2021/01/26 04:56:29;;;;;;;0.40;0.40;;;15.20;63.00;;;;;;6302933;22;20003;-73
2021/01/26 04:59:23;;;;;;;0.43;0.30;;;15.20;63.00;;;;;;6329531;22;19999;-73
2021/01/26 05:02:07;;;;;;;0.35;0.35;;;15.20;62.90;;;;;;6291209;22;20006;-73
2021/01/26 05:04:40;;;;;;;4.32;0.60;;;15.20;62.90;;;;;;6306650;22;19995;-74
2021/01/26 05:07:18;;;;;;;0.60;0.40;;;15.30;62.90;;;;;;6306117;22;20060;-72
2021/01/26 05:09:56;;;;;;;1.13;0.40;;;15.30;62.90;;;;;;6304504;22;20442;-73
2021/01/26 05:12:25;;;;;;;0.20;0.20;;;15.30;62.80;;;;;;6305457;22;20387;-73
2021/01/26 05:14:59;;;;;;;0.90;0.50;;;15.30;62.80;;;;;;6305557;22;20434;-73
2021/01/26 05:17:32;;;;;;;0.50;0.30;;;15.30;62.80;;;;;;6304205;22;20025;-73
2021/01/26 05:20:27;;;;;;;1.02;0.40;;;15.30;62.80;;;;;;6305151;22;20038;-73
2021/01/26 05:22:58;;;;;;;0.47;0.35;;;15.30;62.80;;;;;;6301863;22;20003;-73
2021/01/26 05:25:25;;;;;;;0.20;0.20;;;15.30;62.80;;;;;;6305563;22;20003;-72
2021/01/26 05:27:52;;;;;;;0.45;0.32;;;15.30;62.80;;;;;;6307542;22;19995;-73
2021/01/26 05:30:38;;;;;;;0.20;0.20;;;15.30;62.80;;;;;;6308191;22;20360;-73
2021/01/26 05:33:11;;;;;;;0.47;0.38;;;15.30;62.80;;;;;;6308249;22;20011;-73
2021/01/26 05:35:40;;;;;;;0.43;0.35;;;15.30;62.80;;;;;;6307147;22;19999;-73
2021/01/26 05:38:07;;;;;;;0.30;0.30;;;15.30;62.80;;;;;;6307701;22;20380;-73
2021/01/26 05:40:36;;;;;;;0.55;0.47;;;15.30;62.80;;;;;;6331720;22;20041;-73
2021/01/26 05:43:15;;;;;;;0.52;0.52;;;15.30;62.80;;;;;;6306454;22;20010;-73
2021/01/26 05:45:45;;;;;;;0.30;0.30;;;15.30;62.80;;;;;;6307979;22;19999;-72
2021/01/26 05:48:26;;;;;;;0.73;0.35;;;15.30;62.80;;;;;;6307765;22;20440;-73
2021/01/26 05:51:24;;;;;;;1.15;0.32;;;15.30;62.80;;;;;;6305235;22;20007;-73
2021/01/26 05:53:59;;;;;;;0.28;0.28;;;15.30;62.80;;;;;;6302632;22;20455;-73
2021/01/26 05:56:28;;;;;;;0.38;0.32;;;15.30;62.90;;;;;;6307464;22;20330;-73
2021/01/26 05:59:13;;;;;;;0.28;0.28;;;15.20;62.80;;;;;;6306290;22;20005;-72
2021/01/26 06:01:44;;;;;;;0.30;0.30;;;15.20;62.90;;;;;;6306955;22;20000;-72
2021/01/26 06:04:38;;;;;;;0.30;0.30;;;15.20;63.00;;;;;;6305097;22;20098;-73
2021/01/26 06:07:26;;;;;;;0.52;0.30;;;15.20;62.90;;;;;;6305193;22;20314;-73
2021/01/26 06:09:55;;;;;;;0.43;0.40;;;15.20;63.00;;;;;;6307791;22;20078;-73
2021/01/26 06:12:49;;;;;;;0.40;0.20;;;15.20;63.00;;;;;;6304853;22;20026;-72
2021/01/26 06:15:24;;;;;;;0.43;0.30;;;15.20;63.10;;;;;;6305693;22;20018;-73
2021/01/26 06:18:20;;;;;;;0.30;0.30;;;15.20;63.20;;;;;;6306706;22;20443;-73
2021/01/26 06:21:04;;;;;;;0.25;0.25;;;15.20;63.20;;;;;;6307027;22;20003;-73
2021/01/26 06:23:35;;;;;;;0.28;0.28;;;15.10;63.20;;;;;;6305511;22;19999;-73
2021/01/26 06:26:08;;;;;;;0.57;0.38;;;15.10;63.20;;;;;;6307378;22;20003;-72
2021/01/26 06:28:58;;;;;;;0.63;0.35;;;15.10;63.20;;;;;;6305827;22;20009;-72
2021/01/26 06:31:52;;;;;;;0.47;0.28;;;15.10;63.30;;;;;;6306347;22;20007;-72
2021/01/26 06:34:40;;;;;;;0.30;0.30;;;15.10;63.30;;;;;;6306476;22;20096;-73
2021/01/26 06:37:30;;;;;;;0.43;0.30;;;15.10;63.20;;;;;;6307071;22;20002;-73
2021/01/26 06:40:30;;;;;;;0.40;0.25;;;15.10;63.30;;;;;;6305936;22;20011;-73
2021/01/26 06:43:22;;;;;;;0.82;0.40;;;15.10;63.30;;;;;;6227068;22;20003;-73
2021/01/26 06:46:21;;;;;;;0.20;0.20;;;15.10;63.40;;;;;;6307016;22;20412;-73
2021/01/26 06:49:09;;;;;;;0.13;0.13;;;15.10;63.30;;;;;;6256496;22;20317;-73
2021/01/26 06:51:53;;;;;;;0.30;0.30;;;15.10;63.30;;;;;;6306640;22;20003;-73
2021/01/26 06:54:50;;;;;;;0.43;0.38;;;15.10;63.40;;;;;;6307619;22;20026;-73
2021/01/26 06:57:34;;;;;;;0.30;0.30;;;15.10;63.30;;;;;;6305222;22;19995;-73
2021/01/26 07:00:24;;;;;;;0.57;0.40;;;15.10;63.30;;;;;;6304967;22;20002;-73
2021/01/26 07:03:28;;;;;;;0.60;0.40;;;15.10;63.30;;;;;;6279242;22;20047;-73
2021/01/26 07:06:02;;;;;;;0.30;0.30;;;15.10;63.30;;;;;;6304789;22;20433;-72
2021/01/26 07:08:42;;;;;;;0.40;0.40;;;15.10;63.30;;;;;;6306291;22;20003;-73
2021/01/26 07:11:49;;;;;;;0.60;0.30;;;15.10;63.30;;;;;;6305949;22;20060;-73
2021/01/26 07:14:32;;;;;;;0.35;0.30;;;15.10;63.20;;;;;;6279012;22;20326;-73
2021/01/26 07:17:07;;;;;;;0.50;0.40;;;15.10;63.20;;;;;;6305309;22;20003;-73
2021/01/26 07:19:59;;;;;;;0.32;0.30;;;15.10;63.10;;;;;;6306015;22;20478;-73
2021/01/26 07:22:54;;;;;;;0.30;0.30;;;15.10;63.10;;;;;;6306088;22;20425;-72
2021/01/26 07:25:45;;;;;;;0.40;0.28;;;15.20;63.00;;;;;;6307331;22;20053;-73
2021/01/26 07:28:45;;;;;;;0.30;0.30;;;15.20;62.90;;;;;;6305016;22;20057;-72
2021/01/26 07:31:30;;;;;;;0.40;0.30;;;15.20;62.90;;;;;;6305297;22;20003;-73
2021/01/26 07:34:21;;;;;;;0.50;0.50;;;15.20;62.90;;;;;;6279886;22;19999;-73
2021/01/26 07:36:57;;;;;;;0.50;0.40;;;15.20;62.80;;;;;;6306254;22;20465;-73
2021/01/26 07:39:50;;;;;;;0.40;0.32;;;15.20;62.80;;;;;;6278645;22;20094;-73
2021/01/26 07:42:27;;;;;;;0.20;0.20;;;15.20;62.70;;;;;;6321308;22;20436;-73
2021/01/26 07:45:08;;;;;;;0.32;0.20;;;15.30;62.70;;;;;;6338136;22;19999;-73
2021/01/26 07:48:04;;;;;;;0.43;0.40;;;15.30;62.60;;;;;;6309800;22;20083;-73
2021/01/26 07:50:45;;;;;;;0.40;0.40;;;15.30;62.60;;;;;;6292924;22;20537;-73
2021/01/26 07:53:10;;;;;;;0.25;0.25;;;15.30;62.60;;;;;;6310640;22;20413;-73
2021/01/26 07:55:45;;;;;;;0.85;0.38;;;15.30;62.60;;;;;;6336839;22;20043;-72
2021/01/26 07:58:12;;;;;;;0.28;0.28;;;15.30;62.60;;;;;;6336113;22;19999;-73
2021/01/26 08:00:50;;;;;;;0.40;0.40;;;15.20;62.50;;;;;;6335369;22;20002;-73
2021/01/26 08:03:21;;;;;;;;;;;15.30;62.50;;;;;;6337426;22;19999;-73
2021/01/26 08:05:51;;;;;;;0.40;0.30;;;15.30;62.50;;;;;;6335862;22;19948;-73
2021/01/26 08:08:29;;;;;;;0.52;0.32;;;15.30;62.50;;;;;;6336948;22;20056;-73
2021/01/26 08:11:04;;;;;;;;;;;15.30;62.50;;;;;;6339879;22;20034;-73
2021/01/26 08:13:30;;;;;;;0.40;0.30;;;15.30;62.50;;;;;;6339817;22;19941;-73
2021/01/26 08:16:23;;;;;;;0.38;0.38;;;15.30;62.50;;;;;;6339810;22;20002;-73
2021/01/26 08:18:54;;;;;;;0.60;0.50;;;15.30;62.50;;;;;;6339814;22;19994;-73
2021/01/26 08:21:36;;;;;;;0.75;0.63;;;15.30;62.50;;;;;;6311104;22;20014;-73
2021/01/26 08:24:26;;;;;;;0.35;0.20;;;15.30;62.50;;;;;;6310312;22;20306;-73
2021/01/26 08:27:30;;;;;;;0.20;0.20;;;15.30;62.50;;;;;;6338870;22;20286;-73
2021/01/26 08:30:20;;;;;;;0.55;0.35;;;15.30;62.60;;;;;;6310735;22;19999;-73
2021/01/26 08:32:47;;;;;;;1.33;0.57;;;15.20;62.60;;;;;;6338389;22;20005;-73
2021/01/26 08:35:21;;;;;;;0.77;0.47;;;15.20;62.60;;;;;;6310727;22;20007;-73
2021/01/26 08:37:53;;;;;;;0.47;0.40;;;15.20;62.60;;;;;;6337631;22;20010;-73
2021/01/26 08:40:27;;;;;;;0.47;0.30;;;15.30;62.70;;;;;;6339641;22;20091;-73
2021/01/26 08:43:03;;;;;;;0.50;0.50;;;15.20;62.70;;;;;;6310012;22;20089;-73
2021/01/26 08:45:29;;;;;;;0.52;0.47;;;15.20;62.70;;;;;;6309471;22;20048;-73
2021/01/26 08:48:04;;;;;;;0.45;0.40;;;15.20;62.70;;;;;;6335540;22;19995;-73
2021/01/26 08:50:34;;;;;;;0.60;0.40;;;15.20;62.70;;;;;;6338543;22;19998;-73
2021/01/26 08:53:15;;;;;;;1.10;0.70;;;15.20;62.90;;;;;;6335521;22;20009;-74
2021/01/26 08:55:47;;;;;;;3.92;0.60;;;15.20;63.20;;;;;;6338977;22;19999;-74
2021/01/26 08:58:53;;;;;;;1.13;0.50;;;15.30;63.20;;;;;;6309858;22;19995;-73
2021/01/26 09:01:30;;;;;;;0.52;0.50;;;15.30;62.60;;;;;;6339089;22;20033;-73
2021/01/26 09:04:20;;;;;;;0.60;0.47;;;15.30;62.30;;;;;;6311445;22;20086;-73
2021/01/26 09:06:53;;;;;;;2.45;0.70;;;15.30;62.30;;;;;;6323946;22;20005;-73
2021/01/26 09:09:24;;;;;;;2.72;0.70;;;15.30;62.40;;;;;;6309890;22;20003;-74
2021/01/26 09:11:56;;;;;;;2.03;0.45;;;15.30;62.50;;;;;;6339136;22;19998;-74
2021/01/26 09:14:47;;;;;;;1.05;0.50;;;15.20;62.60;;;;;;6310349;22;20006;-73
2021/01/26 09:17:26;;;;;;;2.80;0.47;;;15.20;62.60;;;;;;6338597;22;20070;-73
2021/01/26 09:20:19;;;;;;;1.40;0.63;;;15.20;62.60;;;;;;6334720;22;20072;-73
2021/01/26 09:22:47;;;;;;;1.17;0.68;;;15.20;62.60;;;;;;6333186;22;20014;-74
2021/01/26 09:25:27;;;;;;;2.17;0.55;;;15.20;62.60;;;;;;6307202;22;20006;-73
2021/01/26 09:28:11;;;;;;;0.50;0.30;;;15.20;62.60;;;;;;6336142;22;20048;-73
2021/01/26 09:30:44;;;;;;;0.50;0.50;;;15.20;62.60;;;;;;6338000;22;19998;-73
2021/01/26 09:33:10;;;;;;;1.27;0.50;;;15.20;62.60;;;;;;6338187;22;20029;-74
2021/01/26 09:36:10;;;;;;;0.45;0.30;;;15.20;62.70;;;;;;6334755;22;19995;-73
2021/01/26 09:38:49;;;;;;;1.73;0.60;;;15.20;62.60;;;;;;6307445;22;20424;-73
2021/01/26 09:41:29;;;;;;;0.98;0.60;;;15.20;62.50;;;;;;6314365;22;20121;-73
2021/01/26 09:44:26;;;;;;;0.30;0.30;;;15.30;62.50;;;;;;6306331;22;20078;-73
2021/01/26 09:47:09;;;;;;;2.33;0.40;;;15.20;62.40;;;;;;6276972;22;20003;-73
2021/01/26 09:49:40;;;;;;;0.40;0.40;;;15.30;62.50;;;;;;6275914;22;20035;-73
2021/01/26 09:52:16;;;;;;;2.15;0.50;;;15.30;62.50;;;;;;6303386;22;20007;-73
2021/01/26 09:54:59;;;;;;;0.98;0.50;;;15.30;62.50;;;;;;6303870;22;20003;-73
2021/01/26 09:57:33;;;;;;;1.15;0.50;;;15.30;62.50;;;;;;6304160;22;20082;-73
2021/01/26 10:00:15;;;;;;;5.60;1.40;;;15.20;62.50;;;;;;6303439;22;20024;-73
2021/01/26 10:03:07;;;;;;;2.60;0.65;;;15.30;61.70;;;;;;6303421;22;20047;-73
2021/01/26 10:05:34;;;;;;;4.57;0.50;;;15.30;61.80;;;;;;6302899;22;20010;-74
2021/01/26 10:08:10;;;;;;;1.17;0.65;;;15.30;61.30;;;;;;6302144;22;19995;-73
2021/01/26 10:10:42;;;;;;;1.42;0.88;;;15.30;60.80;;;;;;6304439;22;20026;-73
2021/01/26 10:13:40;;;;;;;4.95;0.80;;;15.30;60.80;;;;;;6303544;22;20003;-72
2021/01/26 10:16:33;;;;;;;1.02;0.60;;;15.30;61.00;;;;;;6304194;22;19996;-72
2021/01/26 10:19:10;;;;;;;2.70;0.65;;;15.30;61.10;;;;;;6277271;22;20010;-73
2021/01/26 10:21:41;;;;;;;1.48;0.60;;;15.30;61.20;;;;;;6305760;22;20027;-72
2021/01/26 10:24:14;;;;;;;2.35;1.52;;;15.30;61.10;;;;;;6305745;22;20031;-73
2021/01/26 10:26:53;;;;;;;4.53;1.02;;;15.40;61.10;;;;;;6306062;22;20005;-74
2021/01/26 10:29:31;;;;;;;2.58;1.95;;;15.30;61.10;;;;;;6306098;22;20445;-73
2021/01/26 10:32:02;;;;;;;;;;;15.40;61.10;;;;;;6307335;22;20310;-73
2021/01/26 10:34:35;;;;;;;0.95;0.75;;;15.40;61.00;;;;;;6301948;22;19997;-73
2021/01/26 10:37:26;;;;;;;0.82;0.70;;;15.40;61.00;;;;;;6274554;22;19999;-72
2021/01/26 10:40:23;;;;;;;2.42;0.50;;;15.40;61.00;;;;;;6309472;22;20340;-73
2021/01/26 10:43:24;;;;;;;3.00;1.33;;;15.40;60.90;;;;;;6327965;22;20010;-73
2021/01/26 10:45:53;;;;;;;1.33;1.05;;;15.50;60.90;;;;;;6310950;22;20007;-72
2021/01/26 10:48:54;;;;;;;3.00;1.38;;;15.50;60.90;;;;;;6337793;22;20002;-73
2021/01/26 10:51:31;;;;;;;2.70;0.85;;;15.50;60.90;;;;;;6333705;22;20026;-73
2021/01/26 10:53:56;;;;;;;0.83;0.53;;;15.50;60.40;;;;;;6335579;22;20007;-74
2021/01/26 10:56:27;;;;;;;1.13;0.70;;;15.50;60.00;;;;;;6309368;22;20485;-73
2021/01/26 10:58:53;;;;;;;2.17;0.70;;;15.50;60.00;;;;;;6307388;22;19999;-73
2021/01/26 11:01:24;;;;;;;1.50;0.77;;;15.60;59.80;;;;;;6334401;22;20067;-73
2021/01/26 11:03:51;;;;;;;2.78;0.60;;;15.50;59.80;;;;;;6333887;22;19995;-73
2021/01/26 11:06:26;;;;;;;3.28;1.33;;;15.50;59.80;;;;;;6306366;22;20420;-73
2021/01/26 11:08:52;;;;;;;3.83;0.82;;;15.60;59.80;;;;;;6306852;22;20328;-74
2021/01/26 11:11:22;;;;;;;3.10;1.00;;;15.50;59.70;;;;;;6335094;22;20116;-73
2021/01/26 11:13:54;;;;;;;5.88;0.80;;;15.50;60.20;;;;;;6307562;22;20014;-74
2021/01/26 11:16:23;;;;;;;2.63;1.27;;;15.50;59.80;;;;;;6307667;22;20015;-73
2021/01/26 11:18:53;;;;;;;;;;;15.50;59.70;;;;;;6332813;22;20385;-73
2021/01/26 11:21:23;;;;;;;2.33;0.95;;;15.50;59.50;;;;;;6333631;22;19902;-75
2021/01/26 11:23:49;;;;;;;1.65;0.80;;;15.50;59.90;;;;;;6333807;22;20412;-75
2021/01/26 11:26:20;;;;;;;3.85;0.90;;;15.50;59.60;;;;;;6334621;22;20006;-74
2021/01/26 11:29:00;;;;;;;1.45;0.82;;;15.50;59.50;;;;;;6334698;22;20421;-74
2021/01/26 11:31:30;;;;;;;1.58;0.73;;;15.60;59.40;;;;;;6335742;22;20001;-74
2021/01/26 11:33:55;;;;;;;1.85;0.68;;;15.60;59.10;;;;;;6333800;22;19999;-75
2021/01/26 11:36:26;;;;;;;5.05;0.90;;;15.60;59.00;;;;;;6306701;22;20005;-74
2021/01/26 11:38:56;;;;;;;1.35;0.80;;;15.60;58.80;;;;;;6333669;22;19995;-75
2021/01/26 11:41:36;;;;;;;1.50;0.80;;;15.60;58.70;;;;;;6311390;22;20015;-74
2021/01/26 11:44:01;;;;;;;2.20;0.70;;;15.60;58.70;;;;;;6276696;22;20494;-74
2021/01/26 11:46:27;;;;;;;3.50;0.60;;;15.60;58.70;;;;;;6303953;22;19996;-75
2021/01/26 11:48:58;;;;;;;4.03;1.27;;;15.50;58.70;;;;;;6302469;22;20045;-75
2021/01/26 11:51:38;;;;;;;2.20;0.80;;;15.60;58.70;;;;;;6301601;22;20007;-74
2021/01/26 11:54:17;;;;;;;1.58;0.80;;;15.50;58.80;;;;;;6303040;22;19999;-75
2021/01/26 11:56:47;;;;;;;2.58;0.80;;;15.50;58.80;;;;;;6276324;22;20004;-74
2021/01/26 11:59:29;;;;;;;1.15;0.77;;;15.50;58.90;;;;;;6303684;22;20003;-74
2021/01/26 12:02:09;;;;;;;2.15;0.70;;;15.50;58.90;;;;;;6303054;22;19999;-75
2021/01/26 12:04:39;;;;;;;3.58;0.80;;;15.50;58.80;;;;;;6276345;22;20006;-72
2021/01/26 12:07:05;;;;;;;2.05;0.88;;;15.50;58.60;;;;;;6301961;22;20074;-74
2021/01/26 12:09:42;;;;;;;3.10;1.08;;;15.50;58.60;;;;;;6302019;22;20420;-72
2021/01/26 12:12:26;;;;;;;3.08;1.40;;;15.60;59.20;;;;;;6305295;22;20038;-73
2021/01/26 12:14:53;;;;;;;4.93;0.77;;;15.60;60.00;;;;;;6279178;22;20007;-73
2021/01/26 12:17:23;;;;;;;1.65;0.70;;;15.70;60.50;;;;;;6279156;22;19995;-73
2021/01/26 12:19:55;;;;;;;2.67;1.40;;;15.70;60.90;;;;;;6304886;22;20006;-73
2021/01/26 12:22:25;;;;;;;3.80;0.90;;;15.70;62.00;;;;;;6303701;22;20106;-73
2021/01/26 12:25:06;;;;;;;3.55;1.10;;;15.80;63.50;;;;;;6305728;22;19997;-72
2021/01/26 12:27:45;;;;;;;6.88;2.30;;;15.80;64.20;;;;;;6306229;22;19991;-72
2021/01/26 12:30:17;;;;;;;5.72;0.98;;;15.80;66.40;;;;;;6306561;22;20002;-72
2021/01/26 12:32:48;;;;;;;4.20;0.98;;;15.90;68.30;;;;;;6278667;22;20061;-73
2021/01/26 12:35:28;;;;;;;5.43;0.95;;;15.90;71.40;;;;;;6305754;22;20053;-73
2021/01/26 12:37:58;;;;;;;3.25;1.38;;;15.90;72.30;;;;;;6276818;22;20057;-73
2021/01/26 12:40:39;;;;;;;8.18;1.13;;;15.90;74.60;;;;;;6301872;22;20023;-72
2021/01/26 12:43:10;;;;;;;4.88;1.42;;;15.90;76.00;;;;;;6303108;22;20014;-73
2021/01/26 12:45:41;;;;;;;4.28;1.10;;;15.90;77.00;;;;;;6304958;22;20023;-72
2021/01/26 12:48:11;;;;;;;6.57;1.70;;;16.00;78.80;;;;;;6304938;22;20006;-72
2021/01/26 12:50:41;;;;;;;5.22;1.30;;;16.00;80.20;;;;;;6277748;22;20010;-72
2021/01/26 12:53:07;;;;;;;15.75;1.88;;;16.00;79.90;;;;;;6302850;22;20011;-72
2021/01/26 12:55:47;;;;;;;8.10;1.85;;;16.00;81.10;;;;;;6278151;22;20076;-74
2021/01/26 12:58:13;;;;;;;7.30;1.60;;;16.10;83.50;;;;;;6304034;22;20003;-73
2021/01/26 13:00:43;;;;;;;3.72;1.02;;;16.10;80.30;;;;;;6304838;22;20084;-73
2021/01/26 13:03:14;;;;;;;6.20;1.25;;;16.00;75.40;;;;;;6305332;22;20003;-73
2021/01/26 13:05:43;;;;;;;5.05;1.17;;;15.90;72.30;;;;;;6280287;22;20352;-74
2021/01/26 13:08:09;;;;;;;2.33;0.93;;;15.80;70.60;;;;;;6308175;22;20067;-73
2021/01/26 13:10:34;;;;;;;2.33;1.00;;;15.80;68.90;;;;;;6308407;22;20038;-73
2021/01/26 13:13:01;;;;;;;1.90;0.90;;;15.70;68.20;;;;;;6308249;22;20425;-76
2021/01/26 13:15:43;;;;;;;1.92;1.00;;;15.70;67.50;;;;;;6308195;22;20003;-74
2021/01/26 13:18:16;;;;;;;5.20;1.00;;;15.70;66.80;;;;;;6307439;22;20007;-75
2021/01/26 13:21:16;;;;;;;1.95;0.93;;;15.70;66.40;;;;;;6308051;22;20321;-74
2021/01/26 13:23:42;;;;;;;3.80;1.05;;;15.70;66.10;;;;;;6307664;22;20014;-74
2021/01/26 13:26:13;;;;;;;2.08;1.20;;;15.60;65.60;;;;;;6280209;22;20003;-75
2021/01/26 13:28:42;;;;;;;2.47;1.00;;;15.60;65.30;;;;;;6281536;22;20026;-75
2021/01/26 13:31:22;;;;;;;6.38;1.33;;;15.60;65.20;;;;;;6280789;22;20084;-75
2021/01/26 13:33:48;;;;;;;8.10;1.88;;;15.60;65.00;;;;;;6307606;22;19999;-75
2021/01/26 13:36:45;;;;;;;6.10;2.22;;;15.60;64.70;;;;;;6307880;22;20057;-74